createdAt,value
2017-11-06T00:02:08.988Z,69.29
2017-11-06T00:04:34.943Z,69.41
2017-11-06T00:07:00.994Z,69.63
2017-11-06T00:09:26.973Z,69.76
2017-11-06T00:11:52.922Z,69.74
2017-11-06T00:14:18.934Z,70.01
2017-11-06T00:16:44.870Z,69.84
2017-11-06T00:19:10.821Z,70.26
2017-11-06T00:21:36.794Z,69.79
2017-11-06T00:24:02.786Z,69.79
2017-11-06T00:26:28.764Z,69.66
2017-11-06T00:28:54.695Z,69.91
2017-11-06T00:31:20.624Z,69.86
2017-11-06T00:33:46.548Z,69.90
2017-11-06T00:36:12.490Z,69.68
2017-11-06T00:38:38.432Z,69.97
2017-11-06T00:41:04.379Z,69.79
2017-11-06T00:43:30.351Z,69.84
2017-11-06T00:45:56.287Z,69.33
2017-11-06T00:48:22.270Z,69.23
2017-11-06T00:50:48.263Z,69.49
2017-11-06T00:53:14.200Z,69.53
2017-11-06T00:55:40.130Z,69.77
2017-11-06T00:58:06.082Z,69.47
2017-11-06T01:00:32.020Z,69.50
2017-11-06T01:02:57.963Z,69.48
2017-11-06T01:05:23.892Z,69.41
2017-11-06T01:07:49.850Z,69.29
2017-11-06T01:10:15.790Z,69.14
2017-11-06T01:12:41.766Z,69.06
2017-11-06T01:15:07.688Z,69.02
2017-11-06T01:17:33.650Z,69.03
2017-11-06T01:19:59.747Z,69.27
2017-11-06T01:22:25.688Z,69.66
2017-11-06T01:24:51.668Z,69.21
2017-11-06T01:27:17.641Z,69.13
2017-11-06T01:29:43.590Z,69.38
2017-11-06T01:32:09.524Z,68.99
2017-11-06T01:34:35.467Z,69.24
2017-11-06T01:37:01.414Z,69.27
2017-11-06T01:39:27.393Z,69.04
2017-11-06T01:41:53.334Z,68.38
2017-11-06T01:44:19.281Z,68.67
2017-11-06T01:46:45.224Z,68.58
2017-11-06T01:49:11.164Z,68.82
2017-11-06T01:51:37.098Z,68.76
2017-11-06T01:54:03.076Z,68.70
2017-11-06T01:56:29.018Z,68.75
2017-11-06T01:58:54.960Z,68.70
2017-11-06T02:01:20.908Z,68.77
2017-11-06T02:03:46.857Z,68.55
2017-11-06T02:06:12.798Z,68.23
2017-11-06T02:08:38.730Z,68.46
2017-11-06T02:11:04.665Z,68.40
2017-11-06T02:13:30.636Z,68.12
2017-11-06T02:15:56.598Z,67.98
2017-11-06T02:18:22.566Z,68.43
2017-11-06T02:20:48.538Z,68.37
2017-11-06T02:23:14.474Z,68.31
2017-11-06T02:25:40.432Z,68.38
2017-11-06T02:28:06.356Z,68.01
2017-11-06T02:30:32.316Z,68.18
2017-11-06T02:32:58.246Z,68.47
2017-11-06T02:35:24.182Z,68.48
2017-11-06T02:37:50.119Z,68.55
2017-11-06T02:40:16.095Z,68.33
2017-11-06T02:42:42.051Z,68.17
2017-11-06T02:45:08.034Z,68.06
2017-11-06T02:47:33.962Z,68.04
2017-11-06T02:49:59.992Z,68.16
2017-11-06T02:52:25.928Z,67.67
2017-11-06T02:54:51.859Z,67.86
2017-11-06T02:57:17.802Z,67.83
2017-11-06T02:59:43.911Z,67.76
2017-11-06T03:02:09.843Z,67.62
2017-11-06T03:04:35.774Z,67.59
2017-11-06T03:07:01.749Z,67.39
2017-11-06T03:09:27.742Z,67.45
2017-11-06T03:11:53.686Z,67.41
2017-11-06T03:14:19.655Z,67.22
2017-11-06T03:16:45.612Z,67.37
2017-11-06T03:19:11.562Z,67.54
2017-11-06T03:21:37.521Z,67.35
2017-11-06T03:24:03.492Z,67.37
2017-11-06T03:26:29.421Z,66.86
2017-11-06T03:28:55.383Z,66.65
2017-11-06T03:31:21.324Z,67.13
2017-11-06T03:33:47.300Z,67.35
2017-11-06T03:36:13.222Z,67.28
2017-11-06T03:38:39.143Z,67.30
2017-11-06T03:41:05.087Z,67.16
2017-11-06T03:43:31.032Z,66.84
2017-11-06T03:45:56.958Z,66.61
2017-11-06T03:48:22.894Z,66.47
2017-11-06T03:50:48.840Z,66.86
2017-11-06T03:53:14.766Z,66.55
2017-11-06T03:55:40.712Z,66.83
2017-11-06T03:58:06.646Z,66.97
2017-11-06T04:00:32.598Z,67.08
2017-11-06T04:02:58.532Z,66.95
2017-11-06T04:05:24.462Z,67.08
2017-11-06T04:07:50.414Z,67.43
2017-11-06T04:10:16.372Z,67.04
2017-11-06T04:12:42.333Z,66.80
2017-11-06T04:15:08.266Z,66.58
2017-11-06T04:17:34.224Z,66.68
2017-11-06T04:20:00.194Z,66.58
2017-11-06T04:22:26.154Z,66.77
2017-11-06T04:24:52.150Z,66.51
2017-11-06T04:27:18.124Z,66.60
2017-11-06T04:29:44.082Z,66.10
2017-11-06T04:32:10.027Z,66.10
2017-11-06T04:34:35.987Z,66.18
2017-11-06T04:37:01.929Z,65.67
2017-11-06T04:39:27.884Z,66.04
2017-11-06T04:41:53.864Z,66.37
2017-11-06T04:44:19.844Z,65.76
2017-11-06T04:46:45.792Z,66.07
2017-11-06T04:49:11.791Z,66.18
2017-11-06T04:51:37.845Z,66.20
2017-11-06T04:54:03.940Z,66.30
2017-11-06T04:56:29.876Z,66.27
2017-11-06T04:58:55.832Z,65.91
2017-11-06T05:01:21.856Z,66.22
2017-11-06T05:03:47.785Z,65.71
2017-11-06T05:06:13.735Z,65.96
2017-11-06T05:08:39.694Z,66.02
2017-11-06T05:11:05.628Z,65.95
2017-11-06T05:13:31.581Z,65.98
2017-11-06T05:15:57.511Z,65.69
2017-11-06T05:18:23.437Z,65.86
2017-11-06T05:20:49.395Z,65.95
2017-11-06T05:23:15.374Z,65.91
2017-11-06T05:25:41.320Z,65.72
2017-11-06T05:28:07.275Z,66.30
2017-11-06T05:30:33.226Z,66.50
2017-11-06T05:32:59.190Z,66.24
2017-11-06T05:35:25.135Z,66.45
2017-11-06T05:37:51.070Z,65.99
2017-11-06T05:40:17.008Z,66.31
2017-11-06T05:42:42.956Z,66.29
2017-11-06T05:45:08.903Z,66.12
2017-11-06T05:47:34.860Z,65.90
2017-11-06T05:50:00.823Z,66.25
2017-11-06T05:52:26.844Z,65.99
2017-11-06T05:54:52.835Z,66.38
2017-11-06T05:57:18.817Z,65.70
2017-11-06T05:59:44.770Z,66.27
2017-11-06T06:02:10.707Z,66.12
2017-11-06T06:04:36.683Z,66.33
2017-11-06T06:07:02.628Z,66.39
2017-11-06T06:09:28.584Z,65.88
2017-11-06T06:11:54.515Z,66.13
2017-11-06T06:14:20.470Z,66.32
2017-11-06T06:16:46.421Z,65.87
2017-11-06T06:19:12.348Z,66.29
2017-11-06T06:21:38.295Z,66.43
2017-11-06T06:24:04.244Z,65.81
2017-11-06T06:26:30.183Z,65.92
2017-11-06T06:28:56.155Z,65.94
2017-11-06T06:31:22.086Z,65.81
2017-11-06T06:33:48.034Z,65.81
2017-11-06T06:36:13.963Z,65.83
2017-11-06T06:38:39.944Z,65.94
2017-11-06T06:41:05.890Z,65.86
2017-11-06T06:43:31.849Z,65.82
2017-11-06T06:45:57.781Z,65.91
2017-11-06T06:48:23.725Z,65.92
2017-11-06T06:50:49.654Z,66.26
2017-11-06T06:53:15.608Z,66.32
2017-11-06T06:55:41.559Z,65.95
2017-11-06T06:58:07.502Z,66.01
2017-11-06T07:00:33.498Z,65.76
2017-11-06T07:02:59.468Z,66.15
2017-11-06T07:05:25.434Z,66.05
2017-11-06T07:07:51.395Z,66.22
2017-11-06T07:10:17.331Z,65.87
2017-11-06T07:12:43.287Z,66.30
2017-11-06T07:15:09.239Z,66.42
2017-11-06T07:17:35.199Z,66.61
2017-11-06T07:20:01.139Z,66.83
2017-11-06T07:22:27.101Z,66.45
2017-11-06T07:24:53.031Z,66.49
2017-11-06T07:27:18.982Z,66.42
2017-11-06T07:29:44.913Z,66.55
2017-11-06T07:32:10.900Z,66.64
2017-11-06T07:34:36.852Z,66.24
2017-11-06T07:37:02.819Z,66.27
2017-11-06T07:39:28.779Z,66.40
2017-11-06T07:41:54.755Z,66.51
2017-11-06T07:44:20.700Z,66.28
2017-11-06T07:46:46.652Z,65.77
2017-11-06T07:49:12.650Z,65.95
2017-11-06T07:51:38.597Z,66.01
2017-11-06T07:54:04.527Z,66.08
2017-11-06T07:56:30.473Z,65.76
2017-11-06T07:58:56.451Z,65.92
2017-11-06T08:01:22.420Z,65.95
2017-11-06T08:03:48.362Z,66.14
2017-11-06T08:06:14.306Z,65.74
2017-11-06T08:08:40.253Z,65.42
2017-11-06T08:11:06.220Z,65.37
2017-11-06T08:13:32.193Z,65.19
2017-11-06T08:15:58.124Z,65.65
2017-11-06T08:18:24.116Z,66.44
2017-11-06T08:20:50.070Z,65.17
2017-11-06T08:23:16.008Z,65.08
2017-11-06T08:25:41.960Z,65.10
2017-11-06T08:28:07.906Z,65.06
2017-11-06T08:30:33.885Z,64.95
2017-11-06T08:32:59.838Z,64.99
2017-11-06T08:35:25.773Z,65.01
2017-11-06T08:37:51.723Z,64.84
2017-11-06T08:40:17.691Z,65.05
2017-11-06T08:42:43.645Z,65.22
2017-11-06T08:45:09.603Z,64.20
2017-11-06T08:47:35.537Z,64.31
2017-11-06T08:50:01.484Z,65.06
2017-11-06T08:52:27.446Z,65.05
2017-11-06T08:54:53.387Z,64.63
2017-11-06T08:57:19.329Z,64.74
2017-11-06T08:59:45.268Z,64.22
2017-11-06T09:02:11.212Z,64.53
2017-11-06T09:04:37.167Z,64.47
2017-11-06T09:07:03.090Z,64.73
2017-11-06T09:09:29.027Z,64.10
2017-11-06T09:11:54.967Z,63.84
2017-11-06T09:14:21.950Z,64.04
2017-11-06T09:16:47.914Z,63.56
2017-11-06T09:19:13.875Z,63.70
2017-11-06T09:21:39.895Z,64.03
2017-11-06T09:24:05.980Z,63.88
2017-11-06T09:26:31.906Z,64.36
2017-11-06T09:28:58.016Z,64.31
2017-11-06T09:31:23.970Z,63.91
2017-11-06T09:33:49.940Z,63.84
2017-11-06T09:36:15.912Z,63.37
2017-11-06T09:38:41.855Z,63.71
2017-11-06T09:41:07.844Z,63.35
2017-11-06T09:43:33.824Z,63.85
2017-11-06T09:45:59.775Z,63.88
2017-11-06T09:48:25.750Z,63.76
2017-11-06T09:50:51.692Z,63.68
2017-11-06T09:53:17.680Z,63.49
2017-11-06T09:55:43.655Z,63.51
2017-11-06T09:58:09.648Z,63.17
2017-11-06T10:00:35.697Z,63.09
2017-11-06T10:03:01.637Z,63.00
2017-11-06T10:05:27.659Z,62.95
2017-11-06T10:07:53.600Z,62.99
2017-11-06T10:10:19.613Z,63.42
2017-11-06T10:12:45.568Z,63.50
2017-11-06T10:15:11.518Z,63.63
2017-11-06T10:17:37.489Z,63.16
2017-11-06T10:20:03.452Z,63.29
2017-11-06T10:22:29.452Z,63.54
2017-11-06T10:24:55.384Z,63.63
2017-11-06T10:27:21.390Z,63.78
2017-11-06T10:29:47.340Z,63.53
2017-11-06T10:32:13.925Z,63.51
2017-11-06T10:34:39.901Z,63.16
2017-11-06T10:37:05.980Z,63.35
2017-11-06T10:39:31.921Z,63.49
2017-11-06T10:41:57.845Z,63.44
2017-11-06T10:44:23.798Z,63.58
2017-11-06T10:46:49.774Z,63.19
2017-11-06T10:49:15.756Z,63.07
2017-11-06T10:51:41.782Z,63.29
2017-11-06T10:54:07.744Z,63.50
2017-11-06T10:56:33.757Z,63.39
2017-11-06T10:58:59.759Z,63.57
2017-11-06T11:01:25.700Z,63.40
2017-11-06T11:03:51.651Z,63.62
2017-11-06T11:06:17.610Z,63.26
2017-11-06T11:08:43.580Z,63.03
2017-11-06T11:11:09.550Z,63.54
2017-11-06T11:13:35.615Z,63.59
2017-11-06T11:16:01.567Z,62.99
2017-11-06T11:18:27.676Z,63.35
2017-11-06T11:20:53.648Z,63.87
2017-11-06T11:23:19.667Z,64.02
2017-11-06T11:25:45.620Z,63.62
2017-11-06T11:28:11.598Z,63.73
2017-11-06T11:30:37.546Z,63.57
2017-11-06T11:33:03.480Z,63.46
2017-11-06T11:35:29.510Z,63.32
2017-11-06T11:37:55.440Z,63.36
2017-11-06T11:40:21.388Z,63.51
2017-11-06T11:42:47.375Z,63.02
2017-11-06T11:45:13.366Z,63.34
2017-11-06T11:47:39.314Z,63.34
2017-11-06T11:50:05.266Z,63.33
2017-11-06T11:52:31.260Z,63.29
2017-11-06T11:54:57.232Z,63.29
2017-11-06T11:57:23.204Z,63.86
2017-11-06T11:59:49.148Z,63.50
2017-11-06T12:02:15.150Z,63.71
2017-11-06T12:04:41.110Z,63.41
2017-11-06T12:07:07.071Z,63.14
2017-11-06T12:09:33.010Z,63.36
2017-11-06T12:11:58.980Z,63.11
2017-11-06T12:14:24.934Z,63.03
2017-11-06T12:16:50.920Z,62.97
2017-11-06T12:19:16.848Z,63.15
2017-11-06T12:21:42.818Z,63.16
2017-11-06T12:24:08.794Z,63.19
2017-11-06T12:26:34.793Z,63.08
2017-11-06T12:29:00.828Z,63.05
2017-11-06T12:31:26.758Z,62.88
2017-11-06T12:33:52.724Z,62.80
2017-11-06T12:36:18.690Z,63.37
2017-11-06T12:38:44.682Z,63.19
2017-11-06T12:41:10.622Z,62.79
2017-11-06T12:43:36.552Z,62.84
2017-11-06T12:46:02.564Z,62.75
2017-11-06T12:48:28.498Z,62.91
2017-11-06T12:50:54.463Z,63.17
2017-11-06T12:53:21.556Z,63.19
2017-11-06T12:55:47.530Z,63.25
2017-11-06T12:58:13.508Z,63.03
2017-11-06T13:00:39.440Z,63.19
2017-11-06T13:03:05.440Z,63.01
2017-11-06T13:05:31.472Z,63.20
2017-11-06T13:07:57.480Z,63.20
2017-11-06T13:10:23.458Z,63.50
2017-11-06T13:12:49.424Z,63.34
2017-11-06T13:15:15.390Z,63.11
2017-11-06T13:17:41.337Z,62.91
2017-11-06T13:20:07.276Z,62.96
2017-11-06T13:22:34.232Z,63.36
2017-11-06T13:25:00.177Z,63.21
2017-11-06T13:27:26.184Z,62.92
2017-11-06T13:29:52.116Z,62.96
2017-11-06T13:32:18.069Z,63.17
2017-11-06T13:34:44.048Z,63.14
2017-11-06T13:37:09.992Z,63.24
2017-11-06T13:39:35.939Z,62.84
2017-11-06T13:42:01.916Z,63.41
2017-11-06T13:44:27.892Z,63.74
2017-11-06T13:46:53.838Z,63.83
2017-11-06T13:49:19.792Z,63.44
2017-11-06T13:51:45.739Z,63.27
2017-11-06T13:54:11.705Z,63.21
2017-11-06T13:56:37.648Z,63.43
2017-11-06T13:59:03.592Z,63.10
2017-11-06T14:01:29.554Z,63.21
2017-11-06T14:03:55.498Z,63.28
2017-11-06T14:06:21.448Z,62.96
2017-11-06T14:08:47.404Z,62.96
2017-11-06T14:11:13.354Z,62.80
2017-11-06T14:13:39.844Z,62.99
2017-11-06T14:16:05.792Z,62.89
2017-11-06T14:18:31.768Z,62.74
2017-11-06T14:20:57.802Z,63.03
2017-11-06T14:23:23.752Z,63.41
2017-11-06T14:25:49.720Z,63.14
2017-11-06T14:28:15.656Z,62.95
2017-11-06T14:30:41.812Z,63.07
2017-11-06T14:33:07.756Z,62.66
2017-11-06T14:35:33.697Z,62.68
2017-11-06T14:37:59.655Z,62.83
2017-11-06T14:40:25.590Z,62.93
2017-11-06T14:42:51.539Z,62.85
2017-11-06T14:45:17.467Z,62.82
2017-11-06T14:47:43.426Z,62.93
2017-11-06T14:50:09.364Z,63.01
2017-11-06T14:52:35.323Z,63.46
2017-11-06T14:55:01.269Z,63.44
2017-11-06T14:57:27.213Z,63.58
2017-11-06T14:59:53.200Z,63.37
2017-11-06T15:02:19.159Z,63.33
2017-11-06T15:04:45.124Z,63.37
2017-11-06T15:07:11.064Z,63.70
2017-11-06T15:09:37.028Z,63.90
2017-11-06T15:12:02.968Z,63.78
2017-11-06T15:14:29.912Z,63.82
2017-11-06T15:16:55.864Z,63.62
2017-11-06T15:19:21.803Z,63.80
2017-11-06T15:21:47.790Z,63.82
2017-11-06T15:24:13.735Z,64.21
2017-11-06T15:26:39.668Z,64.37
2017-11-06T15:29:05.634Z,64.48
2017-11-06T15:31:31.628Z,64.51
2017-11-06T15:33:57.571Z,64.25
2017-11-06T15:36:23.517Z,64.37
2017-11-06T15:38:49.460Z,64.52
2017-11-06T15:41:15.437Z,64.56
2017-11-06T15:43:41.403Z,65.10
2017-11-06T15:46:07.330Z,65.54
2017-11-06T15:48:33.285Z,65.20
2017-11-06T15:50:59.225Z,65.18
2017-11-06T15:53:25.528Z,65.38
2017-11-06T15:55:51.468Z,65.50
2017-11-06T15:58:17.470Z,65.69
2017-11-06T16:00:43.418Z,65.91
2017-11-06T16:03:09.364Z,66.00
2017-11-06T16:05:35.616Z,66.25
2017-11-06T16:08:01.547Z,66.20
2017-11-06T16:10:27.519Z,66.26
2017-11-06T16:12:53.458Z,66.58
2017-11-06T16:15:19.413Z,66.48
2017-11-06T16:17:45.387Z,67.35
2017-11-06T16:20:11.326Z,68.40
2017-11-06T16:22:37.488Z,67.51
2017-11-06T16:25:03.456Z,67.40
2017-11-06T16:27:29.411Z,67.70
2017-11-06T16:29:55.351Z,67.48
2017-11-06T16:32:21.341Z,67.80
2017-11-06T16:34:47.530Z,67.68
2017-11-06T16:37:13.544Z,67.79
2017-11-06T16:39:39.506Z,68.38
2017-11-06T16:42:05.452Z,67.75
2017-11-06T16:44:31.510Z,68.05
2017-11-06T16:46:57.814Z,68.29
2017-11-06T16:49:23.775Z,68.51
2017-11-06T16:51:49.784Z,67.98
2017-11-06T16:54:15.737Z,68.08
2017-11-06T16:56:41.689Z,68.21
2017-11-06T16:59:07.660Z,68.59
2017-11-06T17:01:33.600Z,68.10
2017-11-06T17:03:59.663Z,69.05
2017-11-06T17:06:25.629Z,68.81
2017-11-06T17:08:51.627Z,68.67
2017-11-06T17:11:17.613Z,68.77
2017-11-06T17:13:43.668Z,68.64
2017-11-06T17:16:09.653Z,68.45
2017-11-06T17:18:35.595Z,68.49
2017-11-06T17:21:01.542Z,69.28
2017-11-06T17:23:27.488Z,69.28
2017-11-06T17:25:53.487Z,69.54
2017-11-06T17:28:19.497Z,69.43
2017-11-06T17:30:45.456Z,69.16
2017-11-06T17:33:11.412Z,69.90
2017-11-06T17:35:37.399Z,69.61
2017-11-06T17:38:03.345Z,69.49
2017-11-06T17:40:30.137Z,69.18
2017-11-06T17:43:01.165Z,68.76
2017-11-06T17:47:58.961Z,68.74
2017-11-06T17:50:24.920Z,69.06
2017-11-06T17:52:51.199Z,68.70
2017-11-06T17:55:17.242Z,68.13
2017-11-06T17:57:43.268Z,68.20
2017-11-06T18:00:09.222Z,67.92
2017-11-06T18:02:35.202Z,68.48
2017-11-06T18:05:01.320Z,68.29
2017-11-06T18:07:27.381Z,68.69
2017-11-06T18:09:53.422Z,68.75
2017-11-06T18:12:19.687Z,68.87
2017-11-06T18:14:45.745Z,68.59
2017-11-06T18:17:11.955Z,68.50
2017-11-06T18:19:37.904Z,68.73
2017-11-06T18:22:03.863Z,68.17
2017-11-06T18:24:29.843Z,68.31
2017-11-06T18:26:55.846Z,68.03
2017-11-06T18:29:21.833Z,67.70
2017-11-06T18:31:47.932Z,67.34
2017-11-06T18:34:13.983Z,67.63
2017-11-06T18:36:40.042Z,68.30
2017-11-06T18:39:05.996Z,68.56
2017-11-06T18:41:31.975Z,68.77
2017-11-06T18:43:57.935Z,68.20
2017-11-06T18:46:24.045Z,68.04
2017-11-06T18:48:50.011Z,68.31
2017-11-06T18:51:15.998Z,68.60
2017-11-06T18:53:41.961Z,68.94
2017-11-06T18:56:08.133Z,68.67
2017-11-06T18:58:34.114Z,68.67
2017-11-06T19:01:00.091Z,69.17
2017-11-06T19:03:26.131Z,69.59
2017-11-06T19:05:52.079Z,69.64
2017-11-06T19:08:18.024Z,69.62
2017-11-06T19:10:43.976Z,69.25
2017-11-06T19:13:09.976Z,69.52
2017-11-06T19:15:35.956Z,69.25
2017-11-06T19:18:02.007Z,68.97
2017-11-06T19:20:27.968Z,69.37
2017-11-06T19:22:53.920Z,69.11
2017-11-06T19:25:20.321Z,69.19
2017-11-06T19:27:46.288Z,69.46
2017-11-06T19:30:12.884Z,69.25
2017-11-06T19:32:38.877Z,68.92
2017-11-06T19:35:04.829Z,68.78
2017-11-06T19:37:30.814Z,69.36
2017-11-06T19:39:56.768Z,69.21
2017-11-06T19:42:22.761Z,69.08
2017-11-06T19:44:48.829Z,69.02
2017-11-06T19:47:14.825Z,68.66
2017-11-06T19:49:40.887Z,68.99
2017-11-06T19:52:06.834Z,69.30
2017-11-06T19:54:32.781Z,68.81
2017-11-06T19:56:58.802Z,69.37
2017-11-06T19:59:24.757Z,69.29
2017-11-06T20:01:50.689Z,69.21
2017-11-06T20:04:16.635Z,69.47
2017-11-06T20:06:42.677Z,69.34
2017-11-06T20:09:08.677Z,69.02
2017-11-06T20:11:34.668Z,69.48
2017-11-06T20:14:00.659Z,69.87
2017-11-06T20:16:26.630Z,69.23
2017-11-06T20:18:52.610Z,69.31
2017-11-06T20:21:18.557Z,69.56
2017-11-06T20:23:44.527Z,69.27
2017-11-06T20:26:11.062Z,69.07
2017-11-06T20:28:37.197Z,69.31
2017-11-06T20:31:03.220Z,69.14
2017-11-06T20:33:29.263Z,68.74
2017-11-06T20:35:55.218Z,68.69
2017-11-06T20:38:21.194Z,68.82
2017-11-06T20:40:48.238Z,68.50
2017-11-06T20:43:14.191Z,68.50
2017-11-06T20:45:40.153Z,68.63
2017-11-06T20:48:07.151Z,68.62
2017-11-06T20:50:33.211Z,68.43
2017-11-06T20:52:59.153Z,68.25
2017-11-06T20:55:25.113Z,68.68
2017-11-06T20:57:51.109Z,68.87
2017-11-06T21:00:17.189Z,68.22
2017-11-06T21:02:43.175Z,68.32
2017-11-06T21:05:09.129Z,68.26
2017-11-06T21:07:35.109Z,68.33
2017-11-06T21:10:01.059Z,68.49
2017-11-06T21:12:27.273Z,68.65
2017-11-06T21:14:54.127Z,69.07
2017-11-06T21:17:20.102Z,68.69
2017-11-06T21:19:46.132Z,68.98
2017-11-06T21:22:12.093Z,68.53
2017-11-06T21:24:38.073Z,68.36
2017-11-06T21:27:04.015Z,68.31
2017-11-06T21:29:29.959Z,67.84
2017-11-06T21:31:55.902Z,67.72
2017-11-06T21:34:21.840Z,68.35
2017-11-06T21:36:47.793Z,68.49
2017-11-06T21:39:13.819Z,68.67
2017-11-06T21:41:39.792Z,68.23
2017-11-06T21:44:05.796Z,68.33
2017-11-06T21:46:31.727Z,68.54
2017-11-06T21:48:57.699Z,68.24
2017-11-06T21:51:23.691Z,68.61
2017-11-06T21:53:49.669Z,68.60
2017-11-06T21:56:15.604Z,67.87
2017-11-06T21:58:41.559Z,68.07
2017-11-06T22:01:07.492Z,68.50
2017-11-06T22:03:33.425Z,68.25
2017-11-06T22:05:59.424Z,68.33
2017-11-06T22:08:25.362Z,68.25
2017-11-06T22:10:51.309Z,68.55
2017-11-06T22:13:17.290Z,68.72
2017-11-06T22:15:43.293Z,68.33
2017-11-06T22:18:09.240Z,68.32
2017-11-06T22:20:35.235Z,68.19
2017-11-06T22:23:01.233Z,68.28
2017-11-06T22:25:27.183Z,68.55
2017-11-06T22:27:53.171Z,68.45
2017-11-06T22:30:19.712Z,68.40
2017-11-06T22:32:45.655Z,68.44
2017-11-06T22:35:11.640Z,67.95
2017-11-06T22:37:37.583Z,67.82
2017-11-06T22:40:03.530Z,67.94
2017-11-06T22:42:29.477Z,68.47
2017-11-06T22:44:55.429Z,68.15
2017-11-06T22:47:21.375Z,68.39
2017-11-06T22:49:47.351Z,68.06
2017-11-06T22:52:13.293Z,68.58
2017-11-06T22:54:39.227Z,68.31
2017-11-06T22:57:05.163Z,68.42
2017-11-06T22:59:31.088Z,68.23
2017-11-06T23:01:57.024Z,67.90
2017-11-06T23:04:22.983Z,68.00
2017-11-06T23:06:48.921Z,68.04
2017-11-06T23:09:14.935Z,68.19
2017-11-06T23:11:40.891Z,68.17
2017-11-06T23:14:06.850Z,68.74
2017-11-06T23:16:32.784Z,68.08
2017-11-06T23:18:58.736Z,68.44
2017-11-06T23:21:24.678Z,68.19
2017-11-06T23:23:50.614Z,68.03
2017-11-06T23:26:16.580Z,68.43
2017-11-06T23:28:42.512Z,68.35
2017-11-06T23:31:08.439Z,68.42
2017-11-06T23:33:34.412Z,67.98
2017-11-06T23:36:00.327Z,68.41
2017-11-06T23:38:26.257Z,68.52
2017-11-06T23:40:52.179Z,68.33
2017-11-06T23:43:18.100Z,68.15
2017-11-06T23:45:44.079Z,68.29
2017-11-06T23:48:10.021Z,68.88
2017-11-06T23:50:35.959Z,68.72
2017-11-06T23:53:01.917Z,68.38
2017-11-06T23:55:27.880Z,68.63
2017-11-06T23:57:53.867Z,68.21
